< < Back
Terminal Aerodrome Forecast


Current Version              Previous Versions:   1  2  3  4  5  6  7  8  9  

Terminal Aerodrome Forecast

596
FTUS42 KJAX 280520
TAFGNV
TAF
KGNV 280520Z 2806/2906 00000KT P6SM FEW060 SCT120 BKN250
     FM281400 24006KT P6SM SCT025
     FM281900 26008KT P6SM VCTS SCT050CB SCT120 SCT250=

Latest METAR

809
SAUS70 KWBC 280700 RRP
MTRGNV
METAR KGNV 280653Z AUTO 00000KT 10SM CLR 23/22 A3000 RMK AO2 SLP155
T02330222


USA.gov is the U.S. government's official web portal to all federal, state and local government web resources and services.